createdAt,value
2023-04-08T00:00:06.590Z,27.20
2023-04-08T00:02:34.580Z,28.17
2023-04-08T00:05:02.725Z,37.80
2023-04-08T00:07:30.882Z,19.23
2023-04-08T00:09:58.894Z,24.87
2023-04-08T00:12:26.797Z,29.10
2023-04-08T00:14:54.755Z,18.33
2023-04-08T00:17:24.033Z,20.43
2023-04-08T00:19:52.801Z,19.37
2023-04-08T00:22:20.965Z,23.97
2023-04-08T00:24:48.820Z,44.90
2023-04-08T00:27:16.715Z,40.30
2023-04-08T00:29:45.281Z,39.43
2023-04-08T00:32:13.315Z,34.90
2023-04-08T00:34:43.197Z,83.47
2023-04-08T00:37:11.308Z,93.53
2023-04-08T00:39:39.266Z,37.90
2023-04-08T00:42:07.147Z,33.03
2023-04-08T00:44:35.317Z,63.40
2023-04-08T00:47:04.464Z,81.43
2023-04-08T00:49:32.635Z,73.47
2023-04-08T00:52:01.921Z,44.80
2023-04-08T00:54:29.789Z,84.73
2023-04-08T00:56:59.948Z,94.40
2023-04-08T00:59:28.806Z,104.40
2023-04-08T01:02:02.741Z,115.63
2023-04-08T01:04:40.903Z,120.70
2023-04-08T01:07:16.115Z,71.53
2023-04-08T01:09:48.780Z,119.00
2023-04-08T01:12:23.397Z,99.60
2023-04-08T01:14:55.889Z,183.43
2023-04-08T01:17:23.992Z,84.70
2023-04-08T01:19:52.608Z,122.00
2023-04-08T01:22:44.979Z,108.67
2023-04-08T01:25:18.543Z,86.97
2023-04-08T01:27:49.910Z,69.50
2023-04-08T01:30:21.388Z,91.77
2023-04-08T01:32:52.102Z,77.77
2023-04-08T01:35:20.417Z,71.43
2023-04-08T01:37:50.237Z,137.57
2023-04-08T01:40:19.693Z,123.30
2023-04-08T01:42:50.861Z,55.90
2023-04-08T01:45:20.159Z,74.07
2023-04-08T01:47:49.747Z,115.20
2023-04-08T01:50:18.216Z,92.17
2023-04-08T01:52:47.601Z,82.93
2023-04-08T01:55:15.619Z,88.13
2023-04-08T01:57:48.840Z,94.13
2023-04-08T02:00:22.224Z,49.83
2023-04-08T02:02:51.509Z,99.47
2023-04-08T02:05:19.708Z,44.07
2023-04-08T02:07:48.742Z,111.80
2023-04-08T02:10:16.780Z,83.80
2023-04-08T02:12:45.733Z,72.97
2023-04-08T02:15:14.026Z,79.80
2023-04-08T02:17:47.212Z,62.63
2023-04-08T02:20:19.676Z,130.90
2023-04-08T02:22:51.154Z,63.57
2023-04-08T02:25:24.077Z,112.40
2023-04-08T02:27:53.957Z,122.17
2023-04-08T02:30:24.370Z,117.63
2023-04-08T02:32:55.566Z,106.70
2023-04-08T02:35:24.787Z,133.27
2023-04-08T02:37:52.859Z,74.07
2023-04-08T02:40:25.705Z,77.60
2023-04-08T02:42:53.738Z,89.67
2023-04-08T02:45:21.719Z,94.63
2023-04-08T02:47:49.894Z,62.87
2023-04-08T02:50:19.119Z,68.97
2023-04-08T02:52:49.054Z,88.43
2023-04-08T02:55:16.915Z,102.87
2023-04-08T02:57:45.621Z,103.63
2023-04-08T03:00:14.935Z,128.03
2023-04-08T03:02:43.545Z,70.20
2023-04-08T03:05:12.327Z,69.63
2023-04-08T03:07:41.498Z,81.67
2023-04-08T03:10:10.549Z,58.27
2023-04-08T03:12:38.539Z,109.27
2023-04-08T03:15:07.404Z,85.03
2023-04-08T03:17:35.379Z,55.07
2023-04-08T03:20:04.777Z,80.33
2023-04-08T03:22:32.947Z,95.87
2023-04-08T03:25:02.120Z,93.23
2023-04-08T03:27:30.245Z,137.03
2023-04-08T03:29:58.799Z,120.63
2023-04-08T03:32:26.774Z,118.10
2023-04-08T03:34:54.665Z,86.93
2023-04-08T03:37:23.541Z,51.70
2023-04-08T03:39:51.574Z,66.23
2023-04-08T03:42:21.166Z,42.93
2023-04-08T03:44:49.103Z,80.83
2023-04-08T03:47:16.924Z,146.13
2023-04-08T03:49:44.905Z,75.80
2023-04-08T03:52:12.683Z,81.73
2023-04-08T03:54:40.571Z,86.97
2023-04-08T03:57:08.511Z,114.27
2023-04-08T03:59:39.450Z,125.83
2023-04-08T04:02:07.481Z,66.00
2023-04-08T04:04:36.869Z,90.27
2023-04-08T04:07:04.796Z,167.07
2023-04-08T04:09:32.698Z,164.40
2023-04-08T04:12:00.546Z,155.73
2023-04-08T04:14:28.320Z,67.53
2023-04-08T04:16:57.455Z,56.07
2023-04-08T04:19:25.404Z,53.13
2023-04-08T04:21:53.192Z,35.53
2023-04-08T04:24:21.186Z,44.73
2023-04-08T04:26:48.965Z,69.30
2023-04-08T04:29:16.846Z,82.60
2023-04-08T04:31:44.996Z,52.27
2023-04-08T04:34:14.497Z,20.33
2023-04-08T04:36:42.420Z,16.23
2023-04-08T04:39:10.612Z,13.93
2023-04-08T04:41:40.618Z,16.33
2023-04-08T04:44:08.587Z,42.90
2023-04-08T04:46:36.660Z,14.30
2023-04-08T04:49:04.508Z,14.50
2023-04-08T04:51:34.103Z,21.70
2023-04-08T04:54:01.965Z,24.23
2023-04-08T04:56:29.775Z,22.00
2023-04-08T04:58:57.607Z,72.77
2023-04-08T05:01:25.730Z,65.47
2023-04-08T05:03:53.586Z,40.97
2023-04-08T05:06:21.503Z,33.20
2023-04-08T05:08:51.783Z,45.67
2023-04-08T05:11:21.654Z,22.40
2023-04-08T05:13:49.840Z,17.57
2023-04-08T05:16:17.867Z,18.40
2023-04-08T05:18:45.875Z,32.40
2023-04-08T05:21:13.970Z,35.90
2023-04-08T05:23:41.801Z,21.77
2023-04-08T05:26:11.253Z,44.03
2023-04-08T05:28:39.023Z,34.17
2023-04-08T05:31:06.974Z,67.10
2023-04-08T05:33:34.818Z,94.83
2023-04-08T05:36:02.780Z,124.40
2023-04-08T05:38:30.762Z,56.63
2023-04-08T05:40:58.571Z,100.37
2023-04-08T05:43:27.710Z,35.90
2023-04-08T05:45:55.602Z,22.73
2023-04-08T05:48:23.475Z,29.97
2023-04-08T05:50:51.457Z,50.40
2023-04-08T05:53:19.323Z,63.73
2023-04-08T05:55:47.224Z,35.80
2023-04-08T05:58:15.974Z,35.40
2023-04-08T06:00:45.283Z,30.10
2023-04-08T06:03:16.912Z,18.37
2023-04-08T06:05:46.793Z,14.70
2023-04-08T06:08:14.929Z,10.60
2023-04-08T06:10:49.799Z,10.23
2023-04-08T06:13:17.975Z,10.50
2023-04-08T06:15:48.830Z,11.50
2023-04-08T06:18:17.198Z,11.17
2023-04-08T06:20:46.125Z,9.60
2023-04-08T06:23:14.467Z,10.47
2023-04-08T06:25:42.680Z,9.97
2023-04-08T06:28:11.157Z,11.07
2023-04-08T06:30:39.308Z,10.80
2023-04-08T06:33:09.854Z,11.13
2023-04-08T06:35:41.586Z,11.10
2023-04-08T06:38:10.374Z,10.83
2023-04-08T06:40:39.797Z,9.90
2023-04-08T06:43:08.067Z,11.73
2023-04-08T06:45:35.984Z,10.43
2023-04-08T06:48:03.838Z,15.13
2023-04-08T06:50:33.013Z,19.57
2023-04-08T06:53:01.299Z,22.57
2023-04-08T06:55:29.233Z,20.03
2023-04-08T06:57:58.562Z,14.30
2023-04-08T07:00:34.098Z,12.33
2023-04-08T07:03:02.400Z,11.77
2023-04-08T07:05:30.270Z,11.43
2023-04-08T07:08:01.074Z,11.23
2023-04-08T07:10:32.089Z,11.10
2023-04-08T07:13:00.096Z,18.07
2023-04-08T07:15:28.249Z,11.90
2023-04-08T07:17:56.916Z,13.53
2023-04-08T07:20:24.930Z,11.00
2023-04-08T07:22:52.909Z,12.87
2023-04-08T07:25:22.265Z,13.80
2023-04-08T07:27:52.863Z,12.87
2023-04-08T07:30:21.459Z,12.30
2023-04-08T07:32:51.495Z,9.93
2023-04-08T07:35:24.236Z,9.60
2023-04-08T07:37:52.956Z,9.23
2023-04-08T07:40:22.357Z,9.30
2023-04-08T07:42:51.068Z,8.70
2023-04-08T07:45:19.068Z,8.03
2023-04-08T07:47:47.657Z,8.37
2023-04-08T07:50:15.730Z,8.37
2023-04-08T07:52:43.592Z,8.13
2023-04-08T07:55:11.733Z,9.03
2023-04-08T07:57:41.154Z,8.60
2023-04-08T08:00:10.792Z,8.20
2023-04-08T08:02:38.740Z,8.20
2023-04-08T08:05:07.882Z,7.57
2023-04-08T08:07:36.401Z,8.30
2023-04-08T08:10:04.565Z,7.57
2023-04-08T08:12:32.393Z,8.07
2023-04-08T08:15:01.886Z,8.50
2023-04-08T08:17:31.076Z,8.20
2023-04-08T08:19:58.998Z,7.87
2023-04-08T08:22:27.023Z,8.73
2023-04-08T08:24:57.633Z,8.60
2023-04-08T08:27:25.607Z,8.50
2023-04-08T08:29:53.761Z,8.70
2023-04-08T08:32:22.928Z,8.10
2023-04-08T08:34:51.134Z,8.23
2023-04-08T08:37:20.223Z,8.30
2023-04-08T08:39:48.578Z,8.67
2023-04-08T08:42:23.716Z,8.53
2023-04-08T08:44:51.968Z,9.27
2023-04-08T08:47:20.026Z,8.37
2023-04-08T08:49:50.128Z,9.27
2023-04-08T08:52:18.794Z,8.63
2023-04-08T08:54:46.918Z,8.37
2023-04-08T08:57:19.352Z,8.43
2023-04-08T08:59:47.739Z,8.33
2023-04-08T09:02:26.873Z,8.68
2023-04-08T09:05:01.023Z,8.93
2023-04-08T09:07:30.389Z,10.17
2023-04-08T09:09:59.503Z,9.73
2023-04-08T09:12:28.419Z,9.33
2023-04-08T09:15:05.897Z,9.32
2023-04-08T09:17:35.256Z,9.48
2023-04-08T09:20:12.394Z,8.60
2023-04-08T09:23:00.770Z,11.05
2023-04-08T09:25:33.516Z,9.45
2023-04-08T09:28:03.489Z,9.43
2023-04-08T09:30:33.607Z,11.90
2023-04-08T10:13:21.164Z,8.13
2023-04-08T10:15:49.477Z,9.27
2023-04-08T10:18:38.267Z,9.02
2023-04-08T10:21:06.460Z,9.07
2023-04-08T10:23:56.730Z,10.27
2023-04-08T10:26:35.815Z,9.20
2023-04-08T10:29:42.666Z,9.68
2023-04-08T10:32:29.723Z,9.30
2023-04-08T10:34:57.835Z,8.60
2023-04-08T10:37:25.799Z,8.35
2023-04-08T10:39:55.819Z,9.93
2023-04-08T10:42:29.336Z,8.98
2023-04-08T10:45:01.758Z,9.00
2023-04-08T10:47:30.940Z,9.02
2023-04-08T10:49:59.016Z,9.45
2023-04-08T10:52:27.501Z,7.97
2023-04-08T10:54:55.874Z,8.95
2023-04-08T10:57:27.281Z,8.52
2023-04-08T10:59:55.195Z,9.00
2023-04-08T11:02:23.319Z,9.23
2023-04-08T11:04:55.909Z,9.15
2023-04-08T11:07:23.778Z,10.10
2023-04-08T11:09:51.989Z,7.70
2023-04-08T11:12:19.847Z,8.25
2023-04-08T11:14:49.580Z,7.47
2023-04-08T11:17:17.810Z,7.25
2023-04-08T11:19:45.827Z,9.02
2023-04-08T11:22:18.534Z,9.95
2023-04-08T11:24:57.822Z,8.15
2023-04-08T11:27:26.221Z,9.40
2023-04-08T11:29:56.305Z,8.98
2023-04-08T11:32:24.924Z,9.35
2023-04-08T11:34:54.468Z,8.23
2023-04-08T11:37:29.472Z,8.32
2023-04-08T11:39:58.273Z,8.85
2023-04-08T11:42:29.210Z,10.27
2023-04-08T11:44:57.214Z,7.90
2023-04-08T11:47:32.343Z,7.53
2023-04-08T11:50:01.417Z,7.43
2023-04-08T11:52:46.985Z,11.57
2023-04-08T11:55:26.443Z,10.30
2023-04-08T11:57:55.180Z,7.60
2023-04-08T12:00:23.996Z,8.82
2023-04-08T12:02:53.063Z,8.77
2023-04-08T12:05:22.013Z,9.20
2023-04-08T12:07:51.364Z,7.40
2023-04-08T12:10:19.254Z,10.27
2023-04-08T12:12:47.122Z,7.10
2023-04-08T12:15:15.042Z,9.23
2023-04-08T12:17:43.796Z,9.52
2023-04-08T12:20:13.309Z,9.32
2023-04-08T12:22:41.221Z,8.05
2023-04-08T12:25:11.243Z,7.13
2023-04-08T12:27:39.104Z,10.23
2023-04-08T12:30:08.168Z,9.18
2023-04-08T12:32:36.011Z,8.75
2023-04-08T12:35:03.951Z,7.43
2023-04-08T12:37:33.173Z,9.02
2023-04-08T12:40:01.279Z,6.88
2023-04-08T12:42:31.212Z,6.80
2023-04-08T12:44:59.038Z,8.32
2023-04-08T12:47:26.910Z,6.40
2023-04-08T12:49:54.805Z,5.95
2023-04-08T12:52:22.977Z,7.97
2023-04-08T12:54:51.148Z,6.38
2023-04-08T12:57:18.991Z,5.95
2023-04-08T12:59:48.812Z,8.07
2023-04-08T13:02:16.651Z,7.78
2023-04-08T13:04:44.870Z,6.55
2023-04-08T13:07:12.732Z,5.70
2023-04-08T13:09:40.603Z,5.65
2023-04-08T13:12:08.836Z,5.82
2023-04-08T13:14:37.431Z,6.45
2023-04-08T13:17:06.689Z,4.95
2023-04-08T13:19:35.030Z,3.92
2023-04-08T13:22:02.898Z,4.43
2023-04-08T13:24:30.715Z,6.25
2023-04-08T13:26:58.622Z,5.97
2023-04-08T13:29:26.437Z,5.82
2023-04-08T13:31:54.417Z,5.30
2023-04-08T13:34:23.605Z,4.35
2023-04-08T13:36:51.519Z,5.30
2023-04-08T13:39:19.482Z,5.57
2023-04-08T13:41:47.657Z,6.03
2023-04-08T13:44:16.979Z,4.63
2023-04-08T13:46:45.413Z,5.70
2023-04-08T13:49:13.678Z,5.93
2023-04-08T13:51:42.947Z,5.32
2023-04-08T13:54:11.132Z,5.20
2023-04-08T13:56:38.954Z,5.50
2023-04-08T13:59:07.225Z,6.00
2023-04-08T14:01:35.187Z,5.38
2023-04-08T14:04:03.160Z,5.93
2023-04-08T14:06:31.144Z,7.35
2023-04-08T14:09:00.502Z,5.90
2023-04-08T14:11:28.399Z,5.93
2023-04-08T14:13:56.437Z,6.18
2023-04-08T14:16:24.908Z,6.50
2023-04-08T14:18:53.155Z,9.18
2023-04-08T14:21:21.222Z,7.22
2023-04-08T14:23:49.477Z,7.18
2023-04-08T14:26:18.644Z,6.68
2023-04-08T14:28:47.676Z,7.57
2023-04-08T14:31:15.629Z,5.90
2023-04-08T14:33:43.845Z,6.68
2023-04-08T14:36:13.988Z,6.45
2023-04-08T14:38:42.136Z,6.13
2023-04-08T14:41:10.817Z,6.40
2023-04-08T14:43:40.433Z,5.88
2023-04-08T14:46:08.598Z,7.20
2023-04-08T14:48:36.617Z,6.95
2023-04-08T14:51:04.679Z,6.03
2023-04-08T14:53:33.411Z,5.93
2023-04-08T14:56:01.477Z,9.82
2023-04-08T14:58:29.432Z,8.02
2023-04-08T15:00:58.623Z,5.55
2023-04-08T15:03:26.648Z,9.10
2023-04-08T15:05:55.696Z,6.47
2023-04-08T15:08:23.677Z,4.93
2023-04-08T15:10:51.584Z,4.85
2023-04-08T15:13:19.494Z,7.28
2023-04-08T15:15:47.812Z,5.68
2023-04-08T15:18:17.108Z,5.25
2023-04-08T15:20:45.753Z,5.32
2023-04-08T15:23:13.716Z,16.05
2023-04-08T15:25:41.551Z,8.05
2023-04-08T15:28:09.662Z,31.30
2023-04-08T15:30:37.502Z,18.90
2023-04-08T15:33:06.328Z,11.63
2023-04-08T15:35:36.121Z,7.47
2023-04-08T15:38:04.284Z,6.95
2023-04-08T15:40:34.227Z,10.68
2023-04-08T15:43:02.081Z,7.80
2023-04-08T15:45:29.916Z,9.93
2023-04-08T15:47:57.871Z,6.68
2023-04-08T15:50:29.699Z,6.35
2023-04-08T15:52:58.923Z,7.07
2023-04-08T15:55:26.760Z,6.47
2023-04-08T15:57:56.708Z,6.75
2023-04-08T16:00:24.887Z,6.05
2023-04-08T16:02:53.024Z,6.40
2023-04-08T16:05:21.376Z,7.70
2023-04-08T16:07:49.735Z,6.90
2023-04-08T16:10:19.381Z,6.20
2023-04-08T16:12:47.674Z,7.28
2023-04-08T16:15:15.659Z,6.13
2023-04-08T16:17:43.766Z,6.22
2023-04-08T16:20:12.779Z,6.55
2023-04-08T16:22:40.620Z,6.53
2023-04-08T16:25:09.737Z,6.38
2023-04-08T16:27:38.920Z,7.00
2023-04-08T16:30:07.917Z,7.05
2023-04-08T16:32:35.903Z,6.60
2023-04-08T16:35:03.816Z,8.20
2023-04-08T16:37:31.946Z,6.82
2023-04-08T16:39:59.984Z,6.68
2023-04-08T16:42:28.005Z,7.75
2023-04-08T16:44:59.437Z,9.23
2023-04-08T16:47:27.564Z,8.18
2023-04-08T16:49:55.984Z,8.55
2023-04-08T16:52:24.172Z,8.35
2023-04-08T16:54:52.380Z,8.35
2023-04-08T16:57:20.269Z,8.82
2023-04-08T16:59:48.641Z,8.80
2023-04-08T17:02:17.874Z,8.30
2023-04-08T17:04:49.956Z,8.98
2023-04-08T17:07:18.008Z,9.15
2023-04-08T17:09:51.306Z,9.48
2023-04-08T17:12:19.218Z,10.43
2023-04-08T17:14:47.454Z,9.75
2023-04-08T17:17:17.053Z,10.82
2023-04-08T17:19:45.237Z,11.68
2023-04-08T17:22:13.053Z,14.88
2023-04-08T17:24:41.058Z,11.27
2023-04-08T17:27:09.239Z,13.98
2023-04-08T17:29:37.279Z,13.32
2023-04-08T17:32:05.215Z,12.57
2023-04-08T17:34:34.411Z,12.85
2023-04-08T17:37:02.280Z,13.15
2023-04-08T17:39:31.278Z,14.30
2023-04-08T17:41:59.360Z,13.65
2023-04-08T17:44:29.566Z,13.88
2023-04-08T17:46:57.626Z,15.38
2023-04-08T17:49:25.856Z,15.95
2023-04-08T17:51:55.001Z,14.05
2023-04-08T17:54:22.961Z,12.95
2023-04-08T17:56:51.122Z,15.10
2023-04-08T17:59:19.106Z,12.68
2023-04-08T18:01:47.402Z,12.68
2023-04-08T18:04:16.141Z,11.73
2023-04-08T18:06:44.062Z,11.00
2023-04-08T18:09:13.676Z,12.43
2023-04-08T18:11:41.520Z,11.65
2023-04-08T18:14:09.726Z,12.60
2023-04-08T18:16:37.865Z,12.55
2023-04-08T18:19:05.873Z,12.30
2023-04-08T18:21:33.755Z,12.88
2023-04-08T18:24:01.929Z,12.05
2023-04-08T18:26:31.261Z,10.95
2023-04-08T18:28:59.064Z,12.40
2023-04-08T18:31:27.132Z,12.13
2023-04-08T18:33:55.083Z,11.68
2023-04-08T18:36:23.360Z,12.63
2023-04-08T18:38:51.312Z,12.45
2023-04-08T18:41:20.841Z,13.07
2023-04-08T18:43:50.692Z,13.55
2023-04-08T18:46:19.828Z,12.52
2023-04-08T18:48:49.323Z,13.02
2023-04-08T18:51:17.572Z,13.13
2023-04-08T18:53:45.398Z,13.38
2023-04-08T18:56:16.672Z,13.50
2023-04-08T18:58:46.702Z,14.50
2023-04-08T19:01:16.162Z,13.50
2023-04-08T19:03:44.359Z,12.70
2023-04-08T19:06:13.966Z,15.18
2023-04-08T19:08:41.901Z,12.95
2023-04-08T19:11:09.910Z,14.02
2023-04-08T19:13:37.752Z,15.50
2023-04-08T19:16:06.196Z,14.10
2023-04-08T19:18:35.415Z,15.25
2023-04-08T19:21:03.545Z,15.63
2023-04-08T19:23:32.106Z,14.15
2023-04-08T19:26:00.052Z,14.50
2023-04-08T19:28:27.946Z,13.20
2023-04-08T19:30:55.762Z,13.02
2023-04-08T19:33:23.597Z,13.68
2023-04-08T19:35:52.836Z,13.45
2023-04-08T19:38:21.360Z,13.25
2023-04-08T19:40:49.598Z,13.50
2023-04-08T19:43:18.526Z,12.68
2023-04-08T19:45:46.381Z,12.40
2023-04-08T19:48:14.251Z,12.93
2023-04-08T19:50:42.753Z,12.82
2023-04-08T19:53:12.755Z,13.27
2023-04-08T19:55:40.704Z,14.45
2023-04-08T19:58:08.573Z,13.98
2023-04-08T20:00:37.385Z,12.73
2023-04-08T20:03:06.098Z,11.90
2023-04-08T20:05:34.276Z,13.18
2023-04-08T20:08:02.209Z,13.27
2023-04-08T20:10:31.368Z,12.68
2023-04-08T20:12:59.337Z,12.73
2023-04-08T20:15:27.296Z,15.48
2023-04-08T20:17:55.404Z,12.70
2023-04-08T20:20:23.981Z,15.63
2023-04-08T20:22:51.934Z,15.23
2023-04-08T20:25:19.925Z,15.60
2023-04-08T20:27:49.259Z,14.27
2023-04-08T20:30:17.136Z,15.23
2023-04-08T20:32:45.035Z,15.43
2023-04-08T20:35:13.416Z,15.85
2023-04-08T20:37:41.853Z,15.80
2023-04-08T20:40:10.943Z,15.70
2023-04-08T20:42:39.423Z,15.30
2023-04-08T20:45:10.621Z,13.77
2023-04-08T20:47:38.872Z,13.38
2023-04-08T20:50:08.924Z,14.20
2023-04-08T20:52:36.882Z,15.67
2023-04-08T20:55:05.086Z,14.20
2023-04-08T20:57:33.054Z,14.63
2023-04-08T21:00:01.027Z,17.33
2023-04-08T21:02:30.418Z,14.27
2023-04-08T21:04:58.505Z,17.17
2023-04-08T21:07:26.859Z,15.40
2023-04-08T21:09:54.758Z,14.32
2023-04-08T21:12:22.708Z,14.63
2023-04-08T21:14:51.754Z,15.87
2023-04-08T21:17:19.774Z,15.85
2023-04-08T21:19:49.642Z,14.57
2023-04-08T21:22:20.558Z,13.97
2023-04-08T21:24:48.928Z,15.97
2023-04-08T21:27:17.925Z,18.52
2023-04-08T21:29:45.789Z,15.55
2023-04-08T21:32:14.117Z,18.42
2023-04-08T21:34:42.924Z,18.80
2023-04-08T21:37:16.948Z,17.38
2023-04-08T21:39:44.829Z,18.67
2023-04-08T21:42:13.028Z,20.08
2023-04-08T21:44:41.109Z,19.63
2023-04-08T21:47:08.929Z,18.90
2023-04-08T21:49:36.874Z,18.88
2023-04-08T21:52:04.976Z,17.33
2023-04-08T21:54:34.230Z,17.70
2023-04-08T21:57:02.395Z,19.00
2023-04-08T21:59:30.165Z,16.73
2023-04-08T22:01:58.015Z,19.17
2023-04-08T22:04:25.938Z,17.87
2023-04-08T22:06:54.204Z,21.23
2023-04-08T22:09:22.045Z,22.60
2023-04-08T22:11:51.541Z,21.50
2023-04-08T22:14:19.395Z,24.10
2023-04-08T22:16:47.453Z,23.45
2023-04-08T22:19:15.494Z,22.50
2023-04-08T22:21:43.455Z,28.33
2023-04-08T22:24:11.924Z,26.30
2023-04-08T22:26:39.768Z,25.93
2023-04-08T22:29:09.107Z,25.50
2023-04-08T22:31:39.722Z,29.13
2023-04-08T22:34:07.683Z,26.83
2023-04-08T22:36:35.764Z,26.20
2023-04-08T22:39:03.835Z,26.07
2023-04-08T22:41:31.868Z,27.03
2023-04-08T22:43:59.719Z,27.70
2023-04-08T22:46:29.072Z,28.30
2023-04-08T22:48:57.112Z,27.90
2023-04-08T22:51:24.981Z,25.70
2023-04-08T22:53:52.799Z,25.47
2023-04-08T22:56:21.373Z,26.23
2023-04-08T22:58:49.567Z,28.47
2023-04-08T23:01:20.690Z,28.83
2023-04-08T23:03:50.624Z,27.10
2023-04-08T23:06:19.133Z,26.77
2023-04-08T23:08:47.200Z,29.27
2023-04-08T23:11:15.313Z,27.57
2023-04-08T23:13:43.193Z,28.80
2023-04-08T23:16:11.275Z,26.77
2023-04-08T23:18:39.159Z,26.80
2023-04-08T23:21:08.511Z,29.03
2023-04-08T23:23:36.437Z,26.77
2023-04-08T23:26:04.258Z,26.20
2023-04-08T23:28:32.280Z,27.87
2023-04-08T23:31:00.348Z,27.73
2023-04-08T23:33:28.223Z,29.13
2023-04-08T23:35:56.081Z,27.93
2023-04-08T23:38:25.380Z,27.07
2023-04-08T23:40:53.266Z,26.50
2023-04-08T23:43:21.150Z,26.33
2023-04-08T23:45:48.980Z,30.23
2023-04-08T23:48:16.835Z,25.87
2023-04-08T23:50:44.877Z,29.43
2023-04-08T23:53:13.061Z,28.33
2023-04-08T23:55:42.432Z,28.40
2023-04-08T23:58:10.460Z,28.23
